Chemical Pioneer — KAFO — position and weather

sailwx.info

Track history (hours):
 
Tides and Currents Weather Stations Pressure Air Temp Water Temp Dewpoint Dewpoint Depression Visibility Wind Speed Wind Dir Waves Ship Positions

Chemical Pioneer

Owner: US Shipping Corp, Edison, NJ. More information available from US FCC via Universal Licensing System and Coast Guard Vessel Documentation Center.

Last reported at 2016-May-27 15:33 UTC. Time now 2016-May-27 16:14 UTC.
Position N 40°28' W 073°57'.

Type: Tanker. MMSI: 366032000.

Date/timePositionNaut miles runAvg speedWind from/ knotsBaromVisibWave heightAir tempDewpointWater temp
2016-May-27 15:33N 40°28' W 073°57'1410.5
2016-May-27 14:11N 40°31' W 074°15'4 4.6
2016-May-27 13:23N 40°34' W 074°13'1 0.1
2016-May-26 20:06N 40°35' W 074°12'1 1.7
2016-May-26 19:33N 40°36' W 074°12'5 5.0
2016-May-26 18:33N 40°39' W 074°07'1 0.5
2016-May-26 17:31N 40°39' W 074°06'0 0.0
2016-May-26 16:31N 40°39' W 074°06'0 0.0
2016-May-26 15:31N 40°39' W 074°06'0 0.0
2016-May-26 14:31N 40°39' W 074°06'0 0.0
2016-May-26 13:28N 40°39' W 074°06'0 0.0
2016-May-26 12:31N 40°39' W 074°06'0 0.0
2016-May-26 11:31N 40°39' W 074°06'0 0.0
2016-May-26 10:31N 40°39' W 074°06'0 0.0
2016-May-26 09:31N 40°39' W 074°06'0 0.0
2016-May-26 08:28N 40°39' W 074°06'0 0.0
2016-May-26 07:31N 40°39' W 074°06'0 0.0
2016-May-26 06:31N 40°39' W 074°06'0 0.0
2016-May-26 05:31N 40°39' W 074°06'0 0.0
2016-May-26 04:31N 40°39' W 074°06'0 0.0
2016-May-26 03:07N 40°39' W 074°06'0 0.0
2016-May-26 01:22N 40°39' W 074°06'0 0.0
2016-May-25 21:13N 40°39' W 074°06'0 0.0
2016-May-25 19:28N 40°39' W 074°06'2 1.7
2016-May-25 18:28N 40°38' W 074°04'0 0.1
2016-May-25 17:31N 40°38' W 074°04'0 0.2
2016-May-25 16:33N 40°39' W 074°04'0 0.0
2016-May-25 15:33N 40°39' W 074°04'0 0.1
2016-May-25 14:33N 40°38' W 074°04'4 4.1
2016-May-25 13:33N 40°35' W 074°02'1211.7
2016-May-25 12:33N 40°28' W 073°49'8 8.1
2016-May-25 11:33N 40°28' W 073°39'195 9.6
2016-May-24 15:17N 41°48' W 069°42'2512.8
2016-May-24 13:21N 42°11' W 069°56'1215.5
2016-May-24 12:33N 42°23' W 069°52'1515.5
2016-May-24 11:34N 42°37' W 069°47'1815.8
2016-May-24 10:25N 42°55' W 069°41'  
2016-May-19 16:06N 27°11' W 079°42'1119.6
2016-May-19 15:33N 27°00' W 079°42'1919.5
2016-May-19 14:34N 26°41' W 079°45'1919.3
2016-May-19 13:33N 26°22' W 079°47'1919.3
2016-May-19 12:33N 26°02' W 079°50'1918.9
2016-May-19 11:33N 25°44' W 079°52'1918.7
2016-May-19 10:32N 25°25' W 079°57'1919.2
2016-May-19 09:33N 25°08' W 080°05'  
Track history (hours):
 
Tides and Currents Weather Stations Pressure Air Temp Water Temp Dewpoint Dewpoint Depression Visibility Wind Speed Wind Dir Waves Ship Positions

Chemical Pioneer

Owner: US Shipping Corp, Edison, NJ. More information available from US FCC via Universal Licensing System and Coast Guard Vessel Documentation Center.

Last reported at 2016-May-27 15:33 UTC. Time now 2016-May-27 16:14 UTC.
Position N 40°28' W 073°57'.

Type: Tanker. MMSI: 366032000.

Date/timePositionNaut miles runAvg speedWind from/ knotsBaromVisibWave heightAir tempDewpointWater temp
2016-May-27 15:33N 40°28' W 073°57'1410.5
2016-May-27 14:11N 40°31' W 074°15'4 4.6
2016-May-27 13:23N 40°34' W 074°13'1 0.1
2016-May-26 20:06N 40°35' W 074°12'1 1.7
2016-May-26 19:33N 40°36' W 074°12'5 5.0
2016-May-26 18:33N 40°39' W 074°07'1 0.5
2016-May-26 17:31N 40°39' W 074°06'0 0.0
2016-May-26 16:31N 40°39' W 074°06'0 0.0
2016-May-26 15:31N 40°39' W 074°06'0 0.0
2016-May-26 14:31N 40°39' W 074°06'0 0.0
2016-May-26 13:28N 40°39' W 074°06'0 0.0
2016-May-26 12:31N 40°39' W 074°06'0 0.0
2016-May-26 11:31N 40°39' W 074°06'0 0.0
2016-May-26 10:31N 40°39' W 074°06'0 0.0
2016-May-26 09:31N 40°39' W 074°06'0 0.0
2016-May-26 08:28N 40°39' W 074°06'0 0.0
2016-May-26 07:31N 40°39' W 074°06'0 0.0
2016-May-26 06:31N 40°39' W 074°06'0 0.0
2016-May-26 05:31N 40°39' W 074°06'0 0.0
2016-May-26 04:31N 40°39' W 074°06'0 0.0
2016-May-26 03:07N 40°39' W 074°06'0 0.0
2016-May-26 01:22N 40°39' W 074°06'0 0.0
2016-May-25 21:13N 40°39' W 074°06'0 0.0
2016-May-25 19:28N 40°39' W 074°06'2 1.7
2016-May-25 18:28N 40°38' W 074°04'0 0.1
2016-May-25 17:31N 40°38' W 074°04'0 0.2
2016-May-25 16:33N 40°39' W 074°04'0 0.0
2016-May-25 15:33N 40°39' W 074°04'0 0.1
2016-May-25 14:33N 40°38' W 074°04'4 4.1
2016-May-25 13:33N 40°35' W 074°02'1211.7
2016-May-25 12:33N 40°28' W 073°49'8 8.1
2016-May-25 11:33N 40°28' W 073°39'195 9.6
2016-May-24 15:17N 41°48' W 069°42'2512.8
2016-May-24 13:21N 42°11' W 069°56'1215.5
2016-May-24 12:33N 42°23' W 069°52'1515.5
2016-May-24 11:34N 42°37' W 069°47'1815.8
2016-May-24 10:25N 42°55' W 069°41'  
2016-May-19 16:06N 27°11' W 079°42'1119.6
2016-May-19 15:33N 27°00' W 079°42'1919.5
2016-May-19 14:34N 26°41' W 079°45'1919.3
2016-May-19 13:33N 26°22' W 079°47'1919.3
2016-May-19 12:33N 26°02' W 079°50'1918.9
2016-May-19 11:33N 25°44' W 079°52'1918.7
2016-May-19 10:32N 25°25' W 079°57'1919.2
2016-May-19 09:33N 25°08' W 080°05'  

Dump ship's entire track history